Time;durP1;ratioP1;P1;durP2;ratioP2;P2;SDS_P1;SDS_P2;PMS_P1;PMS_P2;Temp;Humidity;BMP_temperature;BMP_pressure;BME280_temperature;BME280_humidity;BME280_pressure;Samples;Min_cycle;Max_cycle;Signal;HPM_P1;HPM_P2
2022/10/04 00:02:51;;;;;;;4.03;2.65;;;;;;;8.45;73.64;97455.28;4934154;29;20584;-82
2022/10/04 00:09:58;;;;;;;6.85;3.83;;;;;;;8.44;73.31;97444.06;4963233;28;20101;-81
2022/10/04 03:24:28;;;;;;;5.68;4.00;;;;;;;7.78;73.52;97307.44;4934476;23;20099;-79
2022/10/04 03:26:57;;;;;;;5.47;3.92;;;;;;;7.69;72.65;97295.31;5034587;28;20049;-79
2022/10/04 03:29:29;;;;;;;7.82;4.90;;;;;;;7.65;73.80;97293.97;5033870;28;20046;-79
2022/10/04 03:32:00;;;;;;;6.60;4.53;;;;;;;7.68;75.33;97293.69;5034621;28;20045;-79
2022/10/04 03:34:33;;;;;;;6.00;4.18;;;;;;;7.72;75.49;97292.44;5034565;28;20072;-79
2022/10/04 03:37:02;;;;;;;4.38;3.88;;;;;;;7.75;76.62;97301.72;5038143;28;20052;-79
2022/10/04 03:39:35;;;;;;;9.13;4.70;;;;;;;7.69;73.95;97297.09;5038126;28;20046;-80
2022/10/04 03:42:04;;;;;;;;;;;;;;;7.64;72.99;97294.94;5038722;28;20054;-79
2022/10/04 03:44:32;;;;;;;6.38;4.07;;;;;;;7.58;74.28;97290.31;5034695;28;19925;-79
2022/10/04 03:47:01;;;;;;;6.95;4.05;;;;;;;7.56;74.34;97293.06;5034780;28;20049;-79
2022/10/04 03:49:33;;;;;;;5.95;4.03;;;;;;;7.60;76.13;97294.41;5034040;28;20391;-79
2022/10/04 03:52:02;;;;;;;5.28;4.03;;;;;;;7.69;77.38;97295.31;5034708;28;20395;-79
2022/10/04 03:54:33;;;;;;;8.48;3.90;;;;;;;7.74;76.07;97311.28;5034231;28;20049;-79
2022/10/04 03:57:02;;;;;;;5.65;3.67;;;;;;;7.71;74.22;97311.56;5034087;28;20060;-79
2022/10/04 03:59:29;;;;;;;6.78;3.80;;;;;;;7.64;73.52;97320.91;5033062;28;20064;-79
2022/10/04 04:02:06;;;;;;;4.22;3.30;;;;;;;7.70;77.79;97319.50;5033943;28;20045;-79
2022/10/04 04:04:43;;;;;;;6.40;4.15;;;;;;;7.78;77.56;97323.03;5033578;28;20046;-79
2022/10/04 04:07:17;;;;;;;5.93;4.28;;;;;;;7.75;73.99;97318.09;5033702;28;20045;-79
2022/10/04 04:09:51;;;;;;;5.45;4.10;;;;;;;7.67;72.67;97338.78;5033564;28;20132;-79
2022/10/04 04:12:24;;;;;;;7.45;3.80;;;;;;;7.58;72.39;97337.88;5033914;28;20128;-79
2022/10/04 04:14:52;;;;;;;5.20;4.00;;;;;;;7.57;73.83;97327.66;5027500;28;20054;-79
2022/10/04 04:17:35;;;;;;;7.18;4.55;;;;;;;7.61;75.52;97316.81;5027389;28;20052;-79
2022/10/04 04:20:07;;;;;;;6.78;4.63;;;;;;;7.67;74.92;97307.63;5029583;28;20046;-79
2022/10/04 04:22:36;;;;;;;15.25;4.85;;;;;;;7.61;72.59;97314.22;5014341;28;20054;-79
2022/10/04 04:25:11;;;;;;;7.90;3.92;;;;;;;7.60;73.30;97314.38;5013801;28;20060;-79
2022/10/04 04:27:41;;;;;;;7.57;3.92;;;;;;;7.60;72.91;97312.56;5014944;28;20046;-79
2022/10/04 04:30:16;;;;;;;4.55;2.95;;;;;;;7.61;74.32;97318.59;5013812;28;20061;-79
2022/10/04 04:32:48;;;;;;;8.05;3.30;;;;;;;7.62;74.40;97317.63;5014651;28;20116;-79
2022/10/04 04:35:25;;;;;;;4.78;3.25;;;;;;;7.66;75.32;97323.38;5014229;28;20470;-79
2022/10/04 04:38:04;;;;;;;6.10;3.10;;;;;;;7.73;77.06;97324.41;5046480;28;20059;-79
2022/10/04 04:40:33;;;;;;;7.20;3.40;;;;;;;7.77;74.94;97317.97;5048869;28;20045;-79
2022/10/04 04:43:02;;;;;;;6.90;2.85;;;;;;;7.77;75.98;97310.97;5015371;28;20064;-79
2022/10/04 04:45:33;;;;;;;4.90;3.90;;;;;;;7.80;76.89;97310.69;5014163;28;20142;-80
2022/10/04 04:48:02;;;;;;;6.50;4.20;;;;;;;7.81;76.04;97307.13;5013606;28;20058;-79
2022/10/04 04:50:34;;;;;;;6.72;4.22;;;;;;;7.81;76.54;97303.72;5013960;28;20038;-80
2022/10/04 04:53:06;;;;;;;6.28;4.97;;;;;;;7.84;76.26;97306.81;5014038;28;20050;-79
2022/10/04 04:55:40;;;;;;;9.70;4.78;;;;;;;7.83;76.03;97309.59;5020805;28;20160;-79
2022/10/04 04:58:31;;;;;;;;;;;;;;;7.87;75.92;97299.69;5034120;28;20056;-80
2022/10/04 05:01:02;;;;;;;4.70;3.05;;;;;;;7.90;77.28;97302.84;5023028;28;19921;-80
2022/10/04 05:03:32;;;;;;;7.50;3.58;;;;;;;7.96;76.81;97309.19;5014053;28;20057;-80
2022/10/04 05:06:01;;;;;;;5.18;3.60;;;;;;;8.03;78.49;97312.88;5023447;28;20469;-79
2022/10/04 05:08:30;;;;;;;11.10;4.22;;;;;;;8.08;78.26;97318.44;5017116;28;20443;-80
2022/10/04 05:11:06;;;;;;;6.63;4.53;;;;;;;8.13;78.49;97304.97;5014025;28;20046;-80
2022/10/04 05:13:40;;;;;;;7.95;4.20;;;;;;;8.19;79.84;97304.41;5033055;28;20053;-80
2022/10/04 05:16:12;;;;;;;5.38;3.65;;;;;;;8.20;76.86;97306.84;5033569;28;20053;-78
2022/10/04 05:18:40;;;;;;;7.30;4.63;;;;;;;8.15;76.02;97308.25;5019325;28;20041;-80
2022/10/04 05:21:14;;;;;;;5.88;3.75;;;;;;;8.13;75.93;97312.78;5032840;28;20049;-80
2022/10/04 05:23:42;;;;;;;7.05;3.75;;;;;;;8.13;75.93;97300.59;5020053;28;20053;-80
2022/10/04 05:26:13;;;;;;;6.38;3.42;;;;;;;8.16;75.80;97297.72;5034964;28;20053;-80
2022/10/04 05:28:41;;;;;;;4.25;3.05;;;;;;;8.20;76.30;97304.25;5046291;28;20046;-80
2022/10/04 05:31:27;;;;;;;6.85;2.90;;;;;;;8.25;76.32;97303.81;5032733;28;20057;-80
2022/10/04 05:33:57;;;;;;;7.78;3.65;;;;;;;8.27;75.84;97306.25;5017646;28;20053;-80
2022/10/04 05:36:51;;;;;;;3.88;2.72;;;;;;;8.30;76.78;97300.75;5022820;28;20084;-80
2022/10/04 05:39:25;;;;;;;4.55;3.10;;;;;;;8.31;76.04;97299.78;5033665;28;20053;-81
2022/10/04 05:42:01;;;;;;;4.32;3.00;;;;;;;8.35;77.38;97303.72;5030497;28;20041;-80
2022/10/04 05:44:31;;;;;;;6.03;3.03;;;;;;;8.38;76.63;97298.22;5032398;28;20053;-80
2022/10/04 05:47:00;;;;;;;8.57;3.22;;;;;;;8.42;76.40;97300.41;5021383;28;20466;-79
2022/10/04 05:49:33;;;;;;;5.15;3.42;;;;;;;8.45;76.11;97296.69;5012539;28;20054;-80
2022/10/04 05:52:03;;;;;;;7.85;4.00;;;;;;;8.46;76.12;97295.69;5022747;28;20069;-80
2022/10/04 05:54:34;;;;;;;7.15;3.45;;;;;;;8.48;76.16;97292.97;5033531;28;20064;-80
2022/10/04 05:57:23;;;;;;;8.00;2.78;;;;;;;8.52;76.76;97300.28;5113407;23;20574;-78
2022/10/04 06:00:08;;;;;;;7.90;2.50;;;;;;;8.56;77.02;97308.63;5039549;28;20518;-79
2022/10/04 06:03:09;;;;;;;4.35;2.97;;;;;;;8.67;79.63;97308.38;5012940;28;20057;-79
2022/10/04 06:05:48;;;;;;;4.45;2.80;;;;;;;8.75;78.23;97310.22;5027678;28;20050;-79
2022/10/04 06:08:27;;;;;;;6.97;2.85;;;;;;;8.80;77.29;97315.78;5022037;28;20050;-79
2022/10/04 06:11:05;;;;;;;7.47;2.85;;;;;;;8.86;77.55;97312.56;5031785;28;20507;-79
2022/10/04 06:13:51;;;;;;;6.15;3.53;;;;;;;8.96;78.82;97320.25;5031727;28;20060;-78
2022/10/04 06:16:28;;;;;;;5.75;3.05;;;;;;;9.02;77.06;97320.47;5032180;28;20148;-78
2022/10/04 06:19:25;;;;;;;6.07;2.88;;;;;;;9.08;76.94;97321.63;5031048;28;20617;-79
2022/10/04 06:22:05;;;;;;;4.40;2.30;;;;;;;9.11;76.23;97325.72;5023357;28;20047;-79
2022/10/04 06:24:37;;;;;;;6.60;2.78;;;;;;;9.15;75.95;97334.84;5035080;28;20052;-79
2022/10/04 06:27:12;;;;;;;8.18;2.72;;;;;;;9.17;75.97;97341.53;5034482;28;20056;-79
2022/10/04 06:29:46;;;;;;;6.28;2.55;;;;;;;9.22;75.77;97348.88;5035111;28;20064;-79
2022/10/04 06:32:45;;;;;;;8.70;2.33;;;;;;;9.30;77.12;97351.53;5034649;28;20042;-78
2022/10/04 06:35:29;;;;;;;6.07;2.88;;;;;;;9.38;75.80;97348.97;5009716;28;20053;-79
2022/10/04 06:38:43;;;;;;;4.43;2.92;;;;;;;9.46;76.34;97343.78;5034906;28;20473;-78
2022/10/04 06:41:58;;;;;;;7.80;2.92;;;;;;;9.53;75.53;97332.75;4962096;28;20047;-79
2022/10/04 06:44:37;;;;;;;11.50;2.92;;;;;;;9.59;76.06;97335.53;5030726;28;20468;-79
2022/10/04 06:47:28;;;;;;;6.25;3.00;;;;;;;9.64;74.74;97332.44;5034782;28;20427;-79
2022/10/04 06:50:06;;;;;;;4.07;2.40;;;;;;;9.64;74.38;97338.50;5034594;28;20446;-78
2022/10/04 06:52:53;;;;;;;5.75;2.80;;;;;;;9.65;74.40;97334.91;5034792;28;20045;-80
2022/10/04 06:55:45;;;;;;;8.38;2.85;;;;;;;9.67;74.38;97343.38;5034293;28;20045;-80
2022/10/04 06:58:40;;;;;;;3.53;2.58;;;;;;;9.69;74.05;97336.22;5034818;28;20056;-79
2022/10/04 07:01:22;;;;;;;5.70;2.88;;;;;;;9.70;74.08;97343.06;5034748;28;20053;-79
2022/10/04 07:03:57;;;;;;;4.43;2.80;;;;;;;9.74;74.09;97337.56;5035055;28;20107;-78
2022/10/04 07:06:30;;;;;;;4.47;2.78;;;;;;;9.78;74.60;97344.88;5034438;28;20054;-79
2022/10/04 07:09:04;;;;;;;8.40;3.65;;;;;;;9.84;74.11;97339.06;5033853;28;20396;-79
2022/10/04 07:11:42;;;;;;;5.90;3.53;;;;;;;9.89;74.09;97347.19;5034900;28;20045;-78
2022/10/04 07:14:16;;;;;;;8.52;3.78;;;;;;;9.98;73.84;97360.25;5035939;28;20080;-79
2022/10/04 07:16:48;;;;;;;9.70;3.22;;;;;;;10.05;73.75;97356.03;5035412;28;20054;-80
2022/10/04 07:19:34;;;;;;;7.30;2.67;;;;;;;10.12;73.35;97364.84;5035056;28;20044;-80
2022/10/04 07:22:14;;;;;;;5.60;2.92;;;;;;;10.20;73.38;97364.84;5035810;28;20384;-80
2022/10/04 07:24:56;;;;;;;5.35;2.75;;;;;;;10.29;73.20;97370.94;5035756;28;20053;-80
2022/10/04 07:27:28;;;;;;;4.82;2.30;;;;;;;10.37;72.87;97370.13;5030023;28;20418;-79
2022/10/04 07:29:57;;;;;;;8.73;2.70;;;;;;;10.45;72.92;97372.72;5034688;28;20064;-79
2022/10/04 07:32:28;;;;;;;8.25;2.70;;;;;;;10.53;72.48;97367.53;5035616;28;20057;-80
2022/10/04 07:35:04;;;;;;;5.28;2.97;;;;;;;10.60;72.46;97373.72;5033781;28;20045;-79
2022/10/04 07:37:37;;;;;;;8.65;2.90;;;;;;;10.63;72.52;97376.03;5035107;28;20491;-80
2022/10/04 07:40:09;;;;;;;6.35;3.17;;;;;;;10.70;72.48;97369.16;5044361;28;20049;-79
2022/10/04 07:42:46;;;;;;;4.45;2.50;;;;;;;10.81;72.31;97369.81;5050810;28;20045;-80
2022/10/04 07:45:19;;;;;;;6.28;3.00;;;;;;;10.92;71.54;97364.25;5040861;28;20060;-80
2022/10/04 07:47:47;;;;;;;5.57;2.67;;;;;;;11.02;72.33;97361.47;5036707;28;20057;-81
2022/10/04 07:50:31;;;;;;;4.32;2.85;;;;;;;11.12;71.19;97362.91;5036463;28;20117;-80
2022/10/04 07:53:01;;;;;;;3.30;2.70;;;;;;;11.20;70.96;97369.94;5035909;28;20045;-80
2022/10/04 07:55:49;;;;;;;5.82;3.33;;;;;;;11.33;70.56;97369.41;5035969;28;20113;-81
2022/10/04 07:58:28;;;;;;;6.85;3.00;;;;;;;11.41;70.25;97364.16;5035044;28;20049;-80
2022/10/04 08:01:00;;;;;;;6.45;2.88;;;;;;;11.49;69.92;97358.09;5034854;28;20052;-79
2022/10/04 08:03:48;;;;;;;7.43;2.43;;;;;;;11.56;69.76;97356.44;5034310;28;20083;-80
2022/10/04 08:06:24;;;;;;;5.85;2.72;;;;;;;11.62;69.33;97360.19;5034749;28;20294;-80
2022/10/04 08:09:08;;;;;;;7.88;3.50;;;;;;;11.68;69.79;97370.75;5034302;28;20056;-79
2022/10/04 08:11:44;;;;;;;4.93;2.60;;;;;;;11.77;69.17;97368.94;5034064;28;20046;-80
2022/10/04 08:14:26;;;;;;;5.35;2.95;;;;;;;11.83;68.97;97362.19;5033551;28;20056;-80
2022/10/04 08:17:07;;;;;;;4.75;2.78;;;;;;;11.87;69.56;97369.56;5033362;28;20045;-80
2022/10/04 08:19:49;;;;;;;6.85;2.60;;;;;;;11.91;68.79;97365.63;5033166;28;20049;-79
2022/10/04 08:22:32;;;;;;;6.47;2.72;;;;;;;11.93;68.44;97363.66;5033191;28;20052;-79
2022/10/04 08:25:10;;;;;;;7.35;2.97;;;;;;;11.97;69.00;97369.34;5032897;28;20053;-80
2022/10/04 08:30:47;;;;;;;5.90;2.70;;;;;;;11.99;68.34;97366.56;5031784;28;20461;-79
2022/10/04 08:33:28;;;;;;;6.85;2.90;;;;;;;12.00;68.27;97363.78;5033423;28;20469;-80
2022/10/04 08:36:10;;;;;;;5.10;2.45;;;;;;;12.03;68.38;97352.19;5032136;28;20057;-80
2022/10/04 08:38:47;;;;;;;9.45;3.13;;;;;;;12.04;68.06;97351.19;5023267;28;20061;-80
2022/10/04 08:41:53;;;;;;;8.68;2.70;;;;;;;12.09;68.22;97351.47;5031377;28;20061;-80
2022/10/04 08:44:55;;;;;;;6.07;2.42;;;;;;;12.15;68.57;97356.00;5016293;28;20052;-80
2022/10/04 08:47:53;;;;;;;4.22;2.55;;;;;;;12.20;68.24;97348.47;5033251;28;20056;-80
2022/10/04 08:50:38;;;;;;;5.97;2.83;;;;;;;12.27;68.01;97353.81;5004613;28;20050;-79
2022/10/04 08:53:34;;;;;;;4.53;2.42;;;;;;;12.32;68.46;97359.34;5025328;28;20442;-79
2022/10/04 08:56:21;;;;;;;7.55;2.83;;;;;;;12.36;68.68;97358.81;5030513;28;20053;-79
2022/10/04 08:59:27;;;;;;;4.15;2.05;;;;;;;12.40;67.54;97350.59;5031746;28;20057;-80
2022/10/04 09:02:30;;;;;;;6.10;2.50;;;;;;;12.45;67.31;97353.53;5032228;28;20049;-79
2022/10/04 09:05:15;;;;;;;;;;;;;;;12.57;67.37;97357.34;5002359;28;20054;-80
2022/10/04 09:08:16;;;;;;;6.45;2.75;;;;;;;12.73;66.75;97356.44;5019315;28;19979;-78
2022/10/04 09:11:07;;;;;;;5.55;2.17;;;;;;;13.01;65.97;97347.97;5031475;28;20050;-79
2022/10/04 09:13:54;;;;;;;4.85;2.08;;;;;;;13.25;64.67;97352.16;5031674;28;20049;-79
2022/10/04 09:16:29;;;;;;;4.15;1.95;;;;;;;13.53;64.15;97355.00;5031833;28;20045;-80
2022/10/04 09:19:19;;;;;;;8.65;2.00;;;;;;;13.83;63.36;97361.03;5032677;28;20045;-79
2022/10/04 09:22:09;;;;;;;4.47;2.47;;;;;;;14.25;61.84;97359.47;5031349;28;20045;-79
2022/10/04 09:25:17;;;;;;;3.40;1.80;;;;;;;14.54;60.38;97362.97;5045945;22;20045;-80
2022/10/04 09:28:19;;;;;;;7.15;2.65;;;;;;;14.89;59.41;97361.31;4975203;28;20039;-81
2022/10/04 09:31:18;;;;;;;6.05;2.13;;;;;;;15.48;58.25;97365.34;4997446;28;20057;-81
2022/10/04 09:34:22;;;;;;;4.45;2.08;;;;;;;16.51;56.21;97361.84;4997914;28;20038;-80
2022/10/04 09:37:24;;;;;;;7.22;2.33;;;;;;;17.60;53.40;97353.50;4991561;28;20065;-80
2022/10/04 09:40:37;;;;;;;6.90;2.15;;;;;;;18.61;50.45;97354.63;5007425;28;20058;-80
2022/10/04 09:43:53;;;;;;;3.58;1.60;;;;;;;19.85;47.86;97370.59;4977079;28;20062;-80
2022/10/04 09:50:12;;;;;;;4.97;1.30;;;;;;;20.43;45.17;97371.09;5001664;28;20077;-80
2022/10/04 09:52:59;;;;;;;2.88;1.52;;;;;;;20.40;44.09;97367.06;5017018;28;20030;-80
2022/10/04 09:55:59;;;;;;;4.10;1.50;;;;;;;20.72;43.31;97369.47;5017303;28;20034;-82
2022/10/04 09:59:26;;;;;;;3.88;1.33;;;;;;;21.31;42.05;97367.66;5005761;28;20059;-83
2022/10/04 10:02:33;;;;;;;2.88;1.52;;;;;;;22.18;41.78;97366.81;4981199;28;20057;-82
2022/10/04 10:05:39;;;;;;;4.38;1.35;;;;;;;22.84;40.06;97363.72;4994221;28;20078;-80
2022/10/04 10:17:36;;;;;;;1.85;1.40;;;;;;;25.59;32.42;97374.22;5042426;28;20283;-81
2022/10/04 10:20:33;;;;;;;1.58;1.10;;;;;;;26.01;32.62;97365.34;5059241;28;20080;-81
2022/10/04 10:23:36;;;;;;;1.20;1.08;;;;;;;26.80;31.76;97366.03;5040713;28;20050;-81
2022/10/04 10:26:34;;;;;;;3.10;1.27;;;;;;;27.61;30.42;97369.72;5039409;28;20132;-81
2022/10/04 10:29:35;;;;;;;4.03;1.13;;;;;;;28.33;30.26;97371.00;5065530;28;20081;-81
2022/10/04 10:43:25;;;;;;;6.28;1.65;;;;;;;30.98;27.53;97371.13;5451839;23;20053;-79
2022/10/04 10:46:14;;;;;;;4.55;1.38;;;;;;;31.31;25.18;97364.88;5038861;28;20067;-81
2022/10/04 11:20:25;;;;;;;3.55;1.05;;;;;;;34.66;23.03;97333.63;5058990;28;19932;-85
2022/10/04 11:26:20;;;;;;;5.15;1.25;;;;;;;34.30;22.06;97319.59;5478237;22;20030;-85
2022/10/04 13:20:29;;;;;;;6.57;1.80;;;;;;;21.70;40.20;97226.47;4644735;23;20502;-79
2022/10/04 13:23:02;;;;;;;8.25;1.75;;;;;;;21.68;41.91;97233.88;4931414;29;20402;-79
2022/10/04 13:25:53;;;;;;;2.55;1.67;;;;;;;21.66;40.85;97234.09;4937642;29;20079;-79
2022/10/04 13:28:45;;;;;;;4.70;1.45;;;;;;;21.59;40.74;97238.75;4975936;28;20087;-81
2022/10/04 13:37:58;;;;;;;2.28;1.27;;;;;;;21.30;43.18;97238.69;4958114;28;20035;-81
2022/10/04 13:41:10;;;;;;;1.63;1.40;;;;;;;21.25;43.49;97241.22;4978068;28;20038;-78
2022/10/04 13:44:32;;;;;;;2.22;1.38;;;;;;;21.20;41.52;97249.09;4979177;28;20035;-79
2022/10/04 13:51:15;;;;;;;4.03;2.03;;;;;;;21.10;46.31;97244.38;4938855;28;20044;-79
2022/10/04 13:57:44;;;;;;;3.58;1.60;;;;;;;20.88;43.46;97238.88;4934896;28;20056;-79
2022/10/04 14:01:08;;;;;;;2.70;1.50;;;;;;;20.80;42.13;97241.06;4945243;28;20052;-78
2022/10/04 14:07:49;;;;;;;1.38;1.15;;;;;;;20.71;42.35;97254.66;5393692;23;20062;-78
2022/10/04 14:13:56;;;;;;;2.33;1.75;;;;;;;20.59;42.75;97248.53;5626964;23;20031;-79
2022/10/04 14:17:22;;;;;;;3.28;1.08;;;;;;;20.53;44.55;97247.59;4960371;28;20025;-79
2022/10/04 14:20:30;;;;;;;2.60;1.30;;;;;;;20.45;43.46;97247.94;4958503;28;20063;-78
2022/10/04 14:23:45;;;;;;;2.67;0.85;;;;;;;20.39;44.27;97243.53;4953426;28;20027;-79
2022/10/04 14:29:45;;;;;;;3.90;1.48;;;;;;;20.32;47.16;97237.56;4454093;23;20480;-78
2022/10/04 14:32:46;;;;;;;3.33;1.67;;;;;;;20.30;45.16;97234.31;4950677;29;20071;-78
2022/10/04 14:48:02;;;;;;;1.20;1.05;;;;;;;19.96;43.90;97228.69;5456522;23;20039;-79
2022/10/04 14:51:49;;;;;;;1.15;1.10;;;;;;;19.90;42.50;97229.63;4979475;28;20082;-80
2022/10/04 14:55:04;;;;;;;1.33;1.23;;;;;;;19.79;43.47;97228.56;4980502;28;20047;-79
2022/10/04 14:58:16;;;;;;;2.88;1.27;;;;;;;19.71;44.40;97221.72;4962561;28;20061;-79
2022/10/04 15:01:38;;;;;;;3.35;1.52;;;;;;;19.65;45.39;97227.88;4962024;28;20047;-80
2022/10/04 15:29:40;;;;;;;5.30;1.85;;;;;;;19.02;47.72;97218.50;4940557;29;20462;-79
2022/10/04 15:32:24;;;;;;;1.90;1.20;;;;;;;18.96;48.44;97207.97;4941273;29;20395;-78
2022/10/04 15:35:05;;;;;;;2.78;1.70;;;;;;;18.91;46.62;97212.09;4941226;29;20051;-81
2022/10/04 15:37:42;;;;;;;3.15;1.95;;;;;;;18.87;49.25;97213.56;4940622;29;20059;-78
2022/10/04 15:40:24;;;;;;;2.55;1.40;;;;;;;18.79;49.28;97211.19;4940896;29;20494;-79
2022/10/04 15:43:06;;;;;;;3.73;1.73;;;;;;;18.72;47.63;97207.78;4903216;29;20053;-78
2022/10/04 15:46:05;;;;;;;3.17;1.60;;;;;;;18.67;48.78;97207.63;4902200;29;20750;-79
2022/10/04 15:48:54;;;;;;;2.22;1.58;;;;;;;18.62;51.71;97204.84;4902258;29;20143;-78
2022/10/04 15:51:41;;;;;;;4.20;1.92;;;;;;;18.55;49.22;97201.44;4903346;29;20089;-79
2022/10/04 15:54:18;;;;;;;3.95;2.10;;;;;;;18.45;49.32;97210.66;4900793;29;20471;-79
2022/10/04 15:56:52;;;;;;;4.88;1.90;;;;;;;18.39;49.66;97214.19;4901919;29;20056;-79
2022/10/04 15:59:32;;;;;;;5.00;2.20;;;;;;;18.32;51.60;97203.69;4902841;29;20052;-79
2022/10/04 16:02:21;;;;;;;5.65;2.50;;;;;;;18.28;50.18;97201.69;4921742;29;20049;-78
2022/10/04 16:05:02;;;;;;;6.15;2.05;;;;;;;18.22;51.29;97202.53;4921111;29;20056;-78
2022/10/04 16:08:13;;;;;;;5.32;2.45;;;;;;;18.15;50.67;97197.31;4923358;29;20123;-79
2022/10/04 16:11:13;;;;;;;6.20;2.22;;;;;;;18.06;51.22;97198.59;4921819;29;20048;-81
2022/10/04 16:17:40;;;;;;;5.45;2.15;;;;;;;17.92;53.45;97206.59;4940324;29;20063;-73
2022/10/04 16:20:49;;;;;;;3.50;2.15;;;;;;;17.86;56.36;97211.91;4927362;29;20554;-74
2022/10/04 16:23:30;;;;;;;4.18;2.20;;;;;;;17.77;55.68;97211.34;4938873;29;20061;-78
2022/10/04 16:26:00;;;;;;;3.42;2.47;;;;;;;17.66;53.48;97204.91;4937235;29;20052;-78
2022/10/04 16:28:52;;;;;;;5.13;2.90;;;;;;;17.58;54.38;97213.09;4937376;29;20497;-78
2022/10/04 16:31:26;;;;;;;8.48;2.85;;;;;;;17.53;54.00;97210.25;4927966;29;20051;-78
2022/10/04 16:34:01;;;;;;;3.33;2.42;;;;;;;17.45;54.84;97206.03;4917384;29;20062;-79
2022/10/04 16:36:44;;;;;;;4.30;2.75;;;;;;;17.37;54.08;97205.47;4927292;29;20055;-78
2022/10/04 16:42:17;;;;;;;8.38;3.00;;;;;;;17.24;56.23;97196.59;4936024;29;20062;-80
2022/10/04 16:44:50;;;;;;;6.93;2.70;;;;;;;17.16;57.38;97198.66;4945094;29;20547;-81
2022/10/04 16:47:25;;;;;;;6.38;2.50;;;;;;;17.09;56.24;97199.47;4952996;29;20068;-80
2022/10/04 16:49:56;;;;;;;3.33;2.38;;;;;;;17.06;59.86;97199.09;4942807;29;20059;-78
2022/10/04 16:52:46;;;;;;;4.03;2.70;;;;;;;17.01;57.37;97201.53;4936560;29;20051;-78
2022/10/04 16:55:43;;;;;;;4.53;3.33;;;;;;;16.92;57.69;97202.78;4936149;29;20056;-78
2022/10/04 16:58:40;;;;;;;5.85;3.63;;;;;;;16.85;57.37;97203.59;4935350;29;20513;-78
2022/10/04 17:01:59;;;;;;;6.20;3.50;;;;;;;16.75;56.71;97207.66;4935989;29;20058;-78
2022/10/04 17:05:17;;;;;;;4.90;3.00;;;;;;;16.66;58.67;97199.16;4929377;29;20047;-78
2022/10/04 17:08:04;;;;;;;5.75;3.40;;;;;;;16.59;59.51;97196.53;4918801;29;20043;-78
2022/10/04 17:10:40;;;;;;;5.55;3.75;;;;;;;16.51;59.52;97196.78;4936116;29;20058;-79
2022/10/04 17:13:22;;;;;;;5.50;3.80;;;;;;;16.47;59.97;97196.38;4935459;29;20064;-78
2022/10/04 17:16:00;;;;;;;6.70;3.70;;;;;;;16.42;59.22;97203.25;4920823;29;20058;-80
2022/10/04 17:18:37;;;;;;;5.43;3.63;;;;;;;16.31;59.15;97203.84;4938034;29;20051;-78
2022/10/04 17:21:23;;;;;;;7.63;3.63;;;;;;;16.22;61.15;97208.50;4935459;29;20091;-78
2022/10/04 17:24:13;;;;;;;6.72;3.90;;;;;;;16.20;61.93;97207.91;4935485;29;20059;-78
2022/10/04 17:26:56;;;;;;;6.03;4.20;;;;;;;16.14;61.37;97209.53;4935960;29;20062;-78
2022/10/04 17:29:45;;;;;;;6.93;3.85;;;;;;;16.08;61.62;97218.25;4939675;29;20058;-78
2022/10/04 17:32:23;;;;;;;4.20;3.08;;;;;;;16.03;61.69;97215.41;4940679;29;20055;-78
2022/10/04 17:35:08;;;;;;;7.32;3.20;;;;;;;15.98;60.38;97215.19;4940323;29;20043;-78
2022/10/04 17:37:45;;;;;;;7.30;3.63;;;;;;;15.91;62.36;97217.81;4935829;29;20083;-78
2022/10/04 17:40:29;;;;;;;6.28;4.13;;;;;;;15.82;60.92;97225.06;4935979;29;20060;-78
2022/10/04 17:43:05;;;;;;;6.72;4.00;;;;;;;15.76;63.88;97232.97;4935994;29;20052;-78
2022/10/04 17:46:08;;;;;;;10.10;4.13;;;;;;;15.72;62.95;97229.94;4935257;29;20516;-78
2022/10/04 17:57:21;;;;;;;6.10;4.10;;;;;;;15.35;61.56;97223.28;4935092;29;20623;-78
2022/10/04 17:59:54;;;;;;;7.93;4.03;;;;;;;15.23;61.80;97221.22;4934560;29;20055;-78
2022/10/04 18:02:29;;;;;;;5.95;3.70;;;;;;;15.17;62.21;97216.75;4931686;29;20051;-78
2022/10/04 18:05:00;;;;;;;4.47;3.50;;;;;;;15.13;62.81;97212.91;4939030;29;20048;-78
2022/10/04 18:07:36;;;;;;;4.85;3.80;;;;;;;15.09;64.81;97216.94;4935878;29;20051;-76
2022/10/04 18:10:21;;;;;;;8.85;4.35;;;;;;;15.04;63.52;97221.94;4938628;29;20063;-78
2022/10/04 18:12:58;;;;;;;6.20;3.97;;;;;;;15.00;63.97;97199.72;4937877;29;20075;-81
2022/10/04 18:15:31;;;;;;;8.38;3.92;;;;;;;14.96;63.69;97209.00;4940360;29;20056;-80
2022/10/04 18:18:15;;;;;;;7.68;5.28;;;;;;;14.93;64.70;97198.84;4949595;29;20054;-81
2022/10/04 18:21:04;;;;;;;8.32;5.63;;;;;;;14.89;64.06;97205.50;4948119;29;20056;-81
2022/10/04 18:23:35;;;;;;;9.38;7.50;;;;;;;14.86;66.63;97198.00;4939612;29;20052;-81
2022/10/04 18:26:11;;;;;;;8.30;5.33;;;;;;;14.83;64.78;97194.78;4939984;29;20059;-81
2022/10/04 18:28:39;;;;;;;7.18;4.70;;;;;;;14.79;64.83;97195.34;4936499;28;20297;-81
2022/10/04 19:18:56;;;;;;;7.97;4.97;;;;;;;14.07;67.62;97243.66;5851265;23;19984;-81
2022/10/04 19:21:30;;;;;;;10.85;4.78;;;;;;;14.01;66.99;97235.53;4981548;28;20051;-81
2022/10/04 19:24:22;;;;;;;5.68;4.38;;;;;;;14.01;68.73;97235.53;4984918;28;20054;-81
2022/10/04 19:26:56;;;;;;;6.65;4.32;;;;;;;13.98;67.00;97235.91;4967343;28;20047;-81
2022/10/04 19:29:37;;;;;;;6.47;4.95;;;;;;;13.96;67.71;97232.66;4962529;28;20122;-80
2022/10/04 19:32:11;;;;;;;9.80;5.25;;;;;;;13.92;67.61;97244.50;4962725;29;20082;-81
2022/10/04 19:34:52;;;;;;;6.43;5.18;;;;;;;13.91;69.63;97252.59;4962352;29;20047;-81
2022/10/04 19:37:25;;;;;;;7.00;4.63;;;;;;;13.89;68.09;97252.75;4962155;29;20055;-80
2022/10/04 19:39:57;;;;;;;;;;;;;;;13.89;67.75;97250.16;4962619;29;20055;-81
2022/10/04 19:42:35;;;;;;;4.93;4.20;;;;;;;13.84;67.82;97249.06;4963607;29;20380;-81
2022/10/04 19:45:18;;;;;;;11.73;5.20;;;;;;;13.79;67.57;97250.44;4964155;28;20111;-80
2022/10/04 19:47:50;;;;;;;9.02;4.95;;;;;;;13.77;68.34;97246.38;4978659;29;20110;-81
2022/10/04 19:50:22;;;;;;;10.02;4.75;;;;;;;13.78;69.71;97242.78;4976589;29;20051;-82
2022/10/04 19:52:56;;;;;;;9.60;4.65;;;;;;;13.77;68.62;97246.38;4961888;29;20059;-80
2022/10/04 19:55:36;;;;;;;9.07;4.95;;;;;;;13.74;68.46;97244.13;4960809;28;20090;-81
2022/10/04 19:58:16;;;;;;;8.70;5.03;;;;;;;13.72;68.05;97248.75;4960248;29;20142;-81
2022/10/04 20:00:45;;;;;;;6.03;4.50;;;;;;;13.68;67.47;97248.31;4960716;29;20390;-81
2022/10/04 20:03:13;;;;;;;13.52;8.60;;;;;;;13.67;67.78;97248.50;4959720;28;20059;-81
2022/10/04 20:05:47;;;;;;;6.30;4.15;;;;;;;13.66;68.89;97254.72;4962474;28;20053;-81
2022/10/04 20:08:36;;;;;;;5.50;3.72;;;;;;;13.66;68.70;97252.91;4975581;29;20119;-81
2022/10/04 20:11:17;;;;;;;7.82;4.15;;;;;;;13.67;68.84;97256.38;4975011;29;20055;-81
2022/10/04 20:13:46;;;;;;;5.05;3.58;;;;;;;13.65;68.53;97253.94;4965700;29;20061;-81
2022/10/04 20:16:14;;;;;;;7.55;4.32;;;;;;;13.64;69.00;97259.34;4960567;28;20078;-81
2022/10/04 20:19:14;;;;;;;8.60;4.75;;;;;;;13.65;67.97;97256.53;4959443;28;20067;-81
2022/10/04 20:21:44;;;;;;;6.93;3.92;;;;;;;13.64;69.55;97259.34;4960475;29;20142;-81
2022/10/04 20:24:16;;;;;;;5.70;3.97;;;;;;;13.64;69.22;97251.47;4960302;28;20054;-81
2022/10/04 20:26:58;;;;;;;6.25;4.18;;;;;;;13.61;68.15;97252.66;4960181;28;20058;-81
2022/10/04 20:30:04;;;;;;;8.25;4.38;;;;;;;13.59;68.54;97262.53;4959505;29;20074;-81
2022/10/04 20:32:54;;;;;;;7.45;4.40;;;;;;;13.56;68.19;97255.84;4960234;29;20134;-81
2022/10/04 20:36:07;;;;;;;6.28;4.50;;;;;;;13.51;68.04;97252.97;4960014;28;20055;-81
2022/10/04 20:39:01;;;;;;;5.97;4.55;;;;;;;13.48;68.87;97261.19;4960065;29;20501;-81
2022/10/04 20:44:43;;;;;;;7.30;4.40;;;;;;;13.43;70.00;97270.63;4959778;29;20058;-81
2022/10/04 20:47:28;;;;;;;;;;;;;;;13.42;69.30;97275.00;4960765;28;20075;-81
2022/10/04 20:49:57;;;;;;;9.32;4.47;;;;;;;13.40;68.07;97282.25;4959088;29;19923;-81
2022/10/04 20:52:27;;;;;;;6.60;4.30;;;;;;;13.35;68.53;97285.41;4960448;28;20134;-81
2022/10/04 20:54:59;;;;;;;10.18;4.60;;;;;;;13.34;68.50;97272.53;4959496;28;20053;-80
2022/10/04 20:57:29;;;;;;;6.78;4.10;;;;;;;13.32;68.24;97275.31;4960194;29;20054;-81
2022/10/04 20:59:58;;;;;;;6.78;4.47;;;;;;;13.29;68.44;97286.13;4960095;29;20066;-81
2022/10/04 21:02:27;;;;;;;8.82;4.32;;;;;;;13.28;68.46;97292.38;4961012;28;20397;-81
2022/10/04 21:05:12;;;;;;;7.68;4.30;;;;;;;13.30;69.12;97298.25;4960763;28;20141;-81
2022/10/04 21:07:40;;;;;;;7.20;3.95;;;;;;;13.30;68.53;97297.47;4961347;29;20138;-81
2022/10/04 21:10:19;;;;;;;8.55;4.72;;;;;;;13.29;68.48;97295.81;4961772;28;20086;-81